createdAt,value
2023-05-16T00:01:37.497Z,8.40
2023-05-16T00:04:04.263Z,7.90
2023-05-16T00:06:31.598Z,7.90
2023-05-16T00:08:57.974Z,7.30
2023-05-16T00:11:24.333Z,7.80
2023-05-16T00:13:50.836Z,7.95
2023-05-16T00:16:17.308Z,7.70
2023-05-16T00:18:44.992Z,8.05
2023-05-16T00:21:11.380Z,8.07
2023-05-16T00:23:38.335Z,7.95
2023-05-16T00:26:04.840Z,8.18
2023-05-16T00:28:31.187Z,8.70
2023-05-16T00:30:57.609Z,7.53
2023-05-16T00:33:24.059Z,7.65
2023-05-16T00:35:50.950Z,8.50
2023-05-16T00:38:17.295Z,8.60
2023-05-16T00:40:44.251Z,8.80
2023-05-16T00:43:10.633Z,8.50
2023-05-16T00:45:36.965Z,8.68
2023-05-16T00:48:04.028Z,7.82
2023-05-16T00:50:30.333Z,8.15
2023-05-16T00:52:56.690Z,8.45
2023-05-16T00:55:23.253Z,7.80
2023-05-16T00:57:50.389Z,8.00
2023-05-16T01:00:19.088Z,8.30
2023-05-16T01:02:46.549Z,8.43
2023-05-16T01:05:12.998Z,8.55
2023-05-16T01:07:39.263Z,8.88
2023-05-16T01:10:06.912Z,21.90
2023-05-16T01:12:41.452Z,12.60
2023-05-16T01:15:12.160Z,11.30
2023-05-16T01:17:50.399Z,11.05
2023-05-16T01:20:28.514Z,10.10
2023-05-16T01:23:17.025Z,8.85
2023-05-16T01:25:56.630Z,8.82
2023-05-16T01:28:25.305Z,17.85
2023-05-16T01:30:51.666Z,9.85
2023-05-16T01:33:17.936Z,8.77
2023-05-16T01:35:55.414Z,12.52
2023-05-16T01:38:26.165Z,11.35
2023-05-16T01:40:58.572Z,10.00
2023-05-16T01:43:33.066Z,9.27
2023-05-16T01:46:04.306Z,9.27
2023-05-16T01:48:36.059Z,9.30
2023-05-16T01:51:03.899Z,9.02
2023-05-16T01:53:36.384Z,9.38
2023-05-16T01:56:03.573Z,9.38
2023-05-16T01:58:33.608Z,8.85
2023-05-16T02:01:02.589Z,9.38
2023-05-16T02:03:29.095Z,10.15
2023-05-16T02:05:55.407Z,9.65
2023-05-16T02:08:21.755Z,9.98
2023-05-16T02:10:48.062Z,10.55
2023-05-16T02:13:14.361Z,11.00
2023-05-16T02:15:41.276Z,9.20
2023-05-16T02:18:08.749Z,9.60
2023-05-16T02:20:35.212Z,10.02
2023-05-16T02:23:02.522Z,9.88
2023-05-16T02:25:29.149Z,10.15
2023-05-16T02:27:55.973Z,9.73
2023-05-16T02:30:22.323Z,9.38
2023-05-16T02:32:49.320Z,9.45
2023-05-16T02:35:15.698Z,9.48
2023-05-16T02:37:42.005Z,9.90
2023-05-16T02:40:09.698Z,9.48
2023-05-16T02:42:35.987Z,9.80
2023-05-16T02:45:02.518Z,8.70
2023-05-16T02:47:28.855Z,9.57
2023-05-16T02:49:55.845Z,8.57
2023-05-16T02:52:22.164Z,9.52
2023-05-16T02:55:04.142Z,9.82
2023-05-16T02:57:35.234Z,9.45
2023-05-16T03:00:01.617Z,10.02
2023-05-16T03:02:28.147Z,10.32
2023-05-16T03:04:55.152Z,9.88
2023-05-16T03:07:21.433Z,10.05
2023-05-16T03:09:47.759Z,10.60
2023-05-16T03:12:14.027Z,10.10
2023-05-16T03:14:40.320Z,10.60
2023-05-16T03:17:06.582Z,10.65
2023-05-16T03:19:32.908Z,11.48
2023-05-16T03:21:59.833Z,11.07
2023-05-16T03:24:26.138Z,11.10
2023-05-16T03:26:52.552Z,12.10
2023-05-16T03:29:18.873Z,12.25
2023-05-16T03:31:45.313Z,11.82
2023-05-16T03:34:11.904Z,11.93
2023-05-16T03:36:39.064Z,12.10
2023-05-16T03:39:07.657Z,12.65
2023-05-16T03:41:34.276Z,11.57
2023-05-16T03:44:00.513Z,12.40
2023-05-16T03:46:26.972Z,12.55
2023-05-16T03:48:53.313Z,12.02
2023-05-16T03:51:19.607Z,12.45
2023-05-16T03:53:45.879Z,12.80
2023-05-16T03:56:12.991Z,12.50
2023-05-16T03:58:39.267Z,12.32
2023-05-16T04:01:05.735Z,12.20
2023-05-16T04:03:32.906Z,12.20
2023-05-16T04:05:59.354Z,11.10
2023-05-16T04:08:26.122Z,11.48
2023-05-16T04:10:52.401Z,10.63
2023-05-16T04:13:19.377Z,11.45
2023-05-16T04:15:45.690Z,11.95
2023-05-16T04:18:12.581Z,11.35
2023-05-16T04:20:38.956Z,10.80
2023-05-16T04:23:05.275Z,10.82
2023-05-16T04:25:31.996Z,11.50
2023-05-16T04:27:58.280Z,12.18
2023-05-16T04:30:25.310Z,13.05
2023-05-16T04:32:51.651Z,12.90
2023-05-16T04:35:18.150Z,12.73
2023-05-16T04:37:44.902Z,11.73
2023-05-16T04:40:12.439Z,13.73
2023-05-16T04:42:38.942Z,13.05
2023-05-16T04:45:10.212Z,13.57
2023-05-16T04:47:37.979Z,13.27
2023-05-16T04:50:05.540Z,13.35
2023-05-16T04:52:31.919Z,13.73
2023-05-16T04:54:59.727Z,13.23
2023-05-16T04:57:26.932Z,13.38
2023-05-16T04:59:53.214Z,13.27
2023-05-16T05:02:19.622Z,13.98
2023-05-16T05:04:46.701Z,14.15
2023-05-16T05:07:13.722Z,13.48
2023-05-16T05:09:39.979Z,13.90
2023-05-16T05:12:07.354Z,13.30
2023-05-16T05:14:33.610Z,13.95
2023-05-16T05:16:59.920Z,13.90
2023-05-16T05:19:26.289Z,14.00
2023-05-16T05:21:53.291Z,14.05
2023-05-16T05:24:19.653Z,14.57
2023-05-16T05:26:46.034Z,15.30
2023-05-16T05:29:12.310Z,14.75
2023-05-16T05:31:38.626Z,15.63
2023-05-16T05:34:05.095Z,15.85
2023-05-16T05:36:31.371Z,15.43
2023-05-16T05:38:58.443Z,16.58
2023-05-16T05:41:25.572Z,15.48
2023-05-16T05:43:52.045Z,15.20
2023-05-16T05:46:18.481Z,16.00
2023-05-16T05:48:45.010Z,16.67
2023-05-16T05:51:13.420Z,17.10
2023-05-16T05:53:40.086Z,17.05
2023-05-16T05:56:07.219Z,17.08
2023-05-16T05:58:33.551Z,16.67
2023-05-16T06:00:59.968Z,17.38
2023-05-16T06:03:26.344Z,16.65
2023-05-16T06:05:52.732Z,17.85
2023-05-16T06:08:19.095Z,16.67
2023-05-16T06:10:45.707Z,16.50
2023-05-16T06:13:12.637Z,17.52
2023-05-16T06:15:38.960Z,18.25
2023-05-16T06:18:05.495Z,16.20
2023-05-16T06:20:31.858Z,16.40
2023-05-16T06:22:58.171Z,16.88
2023-05-16T06:25:24.530Z,15.07
2023-05-16T06:27:50.830Z,16.90
2023-05-16T06:30:17.923Z,16.60
2023-05-16T06:32:44.484Z,15.65
2023-05-16T06:35:10.800Z,17.00
2023-05-16T06:37:37.113Z,16.58
2023-05-16T06:40:03.972Z,16.98
2023-05-16T06:42:30.289Z,17.95
2023-05-16T06:44:56.633Z,16.73
2023-05-16T06:47:23.584Z,16.35
2023-05-16T06:49:50.382Z,16.85
2023-05-16T06:52:16.790Z,18.50
2023-05-16T06:54:43.154Z,17.05
2023-05-16T06:57:09.521Z,16.67
2023-05-16T06:59:36.098Z,18.38
2023-05-16T07:02:02.436Z,17.55
2023-05-16T07:04:29.437Z,17.92
2023-05-16T07:06:55.828Z,16.95
2023-05-16T07:09:22.145Z,18.27
2023-05-16T07:11:48.559Z,18.15
2023-05-16T07:14:14.898Z,16.08
2023-05-16T07:16:41.396Z,16.95
2023-05-16T07:19:08.009Z,16.65
2023-05-16T07:21:35.173Z,17.23
2023-05-16T07:24:01.487Z,16.13
2023-05-16T07:26:27.837Z,17.45
2023-05-16T07:28:54.581Z,17.15
2023-05-16T07:31:24.159Z,16.45
2023-05-16T07:33:50.645Z,15.25
2023-05-16T07:36:17.668Z,17.48
2023-05-16T07:38:45.112Z,17.60
2023-05-16T07:41:11.802Z,17.27
2023-05-16T07:43:38.197Z,18.27
2023-05-16T07:46:05.294Z,19.00
2023-05-16T07:48:31.794Z,19.67
2023-05-16T07:50:58.178Z,20.30
2023-05-16T07:53:24.618Z,19.33
2023-05-16T07:55:51.760Z,22.02
2023-05-16T07:58:18.139Z,22.58
2023-05-16T08:00:44.628Z,23.73
2023-05-16T08:03:11.381Z,23.02
2023-05-16T08:05:38.637Z,23.95
2023-05-16T08:08:05.467Z,25.35
2023-05-16T08:10:34.388Z,26.30
2023-05-16T08:13:01.414Z,27.02
2023-05-16T08:15:28.320Z,25.73
2023-05-16T08:17:58.098Z,25.33
2023-05-16T08:20:24.524Z,26.45
2023-05-16T08:22:53.683Z,25.80
2023-05-16T08:25:20.487Z,26.05
2023-05-16T08:27:48.513Z,24.23
2023-05-16T08:30:15.617Z,26.98
2023-05-16T08:32:41.985Z,25.23
2023-05-16T08:35:10.167Z,25.85
2023-05-16T08:37:36.482Z,26.77
2023-05-16T08:40:07.608Z,27.83
2023-05-16T08:42:34.960Z,27.13
2023-05-16T08:45:01.408Z,27.02
2023-05-16T08:47:31.264Z,26.85
2023-05-16T08:49:58.505Z,25.67
2023-05-16T08:52:29.133Z,25.08
2023-05-16T08:55:09.401Z,26.30
2023-05-16T08:57:37.475Z,26.52
2023-05-16T09:00:12.884Z,25.27
2023-05-16T09:05:10.597Z,24.35
2023-05-16T09:07:37.010Z,25.42
2023-05-16T09:10:05.066Z,24.38
2023-05-16T09:12:31.414Z,25.00
2023-05-16T09:14:58.155Z,27.05
2023-05-16T09:17:32.224Z,27.30
2023-05-16T09:20:11.161Z,31.52
2023-05-16T09:22:37.886Z,31.63
2023-05-16T09:25:06.849Z,30.33
2023-05-16T09:27:34.980Z,30.83
2023-05-16T09:30:02.070Z,27.85
2023-05-16T09:32:28.424Z,27.27
2023-05-16T09:34:57.122Z,25.90
2023-05-16T09:37:24.663Z,24.10
2023-05-16T09:39:52.384Z,23.00
2023-05-16T09:42:20.309Z,23.27
2023-05-16T09:44:48.620Z,21.98
2023-05-16T09:47:15.656Z,22.38
2023-05-16T09:49:42.133Z,23.42
2023-05-16T09:52:09.443Z,22.80
2023-05-16T09:54:36.582Z,21.60
2023-05-16T09:57:03.247Z,23.10
2023-05-16T09:59:30.109Z,22.10
2023-05-16T10:01:58.851Z,21.52
2023-05-16T10:04:25.285Z,21.00
2023-05-16T10:06:54.135Z,22.98
2023-05-16T10:09:22.073Z,21.05
2023-05-16T10:11:51.230Z,22.05
2023-05-16T10:14:18.608Z,21.02
2023-05-16T10:16:48.149Z,21.50
2023-05-16T10:19:16.083Z,22.98
2023-05-16T10:21:48.933Z,21.30
2023-05-16T10:24:19.875Z,24.15
2023-05-16T10:26:46.422Z,22.10
2023-05-16T10:29:13.970Z,23.08
2023-05-16T10:31:41.235Z,21.80
2023-05-16T10:34:07.704Z,23.02
2023-05-16T10:36:34.696Z,23.60
2023-05-16T10:39:02.254Z,23.80
2023-05-16T10:41:28.722Z,23.42
2023-05-16T10:43:58.935Z,24.00
2023-05-16T10:46:28.333Z,24.10
2023-05-16T10:48:56.529Z,24.30
2023-05-16T10:51:34.641Z,25.17
2023-05-16T10:54:06.110Z,25.50
2023-05-16T10:56:32.969Z,27.95
2023-05-16T10:58:59.298Z,26.25
2023-05-16T11:01:28.802Z,27.63
2023-05-16T11:04:16.475Z,29.25
2023-05-16T11:06:50.362Z,27.45
2023-05-16T11:09:22.696Z,27.90
2023-05-16T11:11:59.003Z,31.40
2023-05-16T11:14:28.066Z,32.63
2023-05-16T11:17:01.504Z,34.08
2023-05-16T11:19:33.712Z,33.53
2023-05-16T11:22:07.582Z,36.90
2023-05-16T11:24:35.584Z,35.13
2023-05-16T11:27:03.122Z,38.45
2023-05-16T11:29:31.615Z,37.70
2023-05-16T11:31:59.357Z,36.83
2023-05-16T11:34:25.783Z,36.15
2023-05-16T11:36:52.449Z,34.03
2023-05-16T11:39:19.306Z,31.98
2023-05-16T11:41:47.809Z,32.60
2023-05-16T11:44:15.428Z,33.50
2023-05-16T11:46:42.074Z,37.10
2023-05-16T11:49:09.892Z,34.92
2023-05-16T11:51:37.974Z,34.80
2023-05-16T11:54:04.764Z,32.05
2023-05-16T11:56:31.507Z,30.58
2023-05-16T11:58:58.727Z,29.17
2023-05-16T12:01:25.551Z,26.05
2023-05-16T12:03:58.346Z,25.95
2023-05-16T12:06:25.921Z,25.90
2023-05-16T12:08:52.844Z,27.67
2023-05-16T12:11:21.035Z,27.40
2023-05-16T12:13:50.151Z,28.13
2023-05-16T12:16:16.738Z,27.98
2023-05-16T12:18:43.912Z,22.08
2023-05-16T12:21:10.443Z,20.90
2023-05-16T12:23:37.453Z,19.52
2023-05-16T12:26:07.278Z,20.15
2023-05-16T12:28:34.908Z,21.83
2023-05-16T12:31:01.308Z,21.83
2023-05-16T12:33:27.790Z,20.85
2023-05-16T12:35:54.381Z,21.98
2023-05-16T12:38:20.905Z,22.13
2023-05-16T12:40:47.914Z,22.13
2023-05-16T12:43:14.896Z,22.52
2023-05-16T12:45:41.560Z,21.58
2023-05-16T12:48:12.576Z,22.00
2023-05-16T12:50:39.641Z,20.95
2023-05-16T12:53:12.086Z,22.45
2023-05-16T12:55:38.490Z,21.20
2023-05-16T12:58:05.875Z,20.85
2023-05-16T13:00:32.277Z,21.88
2023-05-16T13:02:58.801Z,21.65
2023-05-16T13:05:25.438Z,21.25
2023-05-16T13:07:52.046Z,23.27
2023-05-16T13:10:18.678Z,25.33
2023-05-16T13:12:45.403Z,24.83
2023-05-16T13:15:12.455Z,25.48
2023-05-16T13:17:40.079Z,25.77
2023-05-16T13:20:09.225Z,25.80
2023-05-16T13:22:35.834Z,24.38
2023-05-16T13:25:03.837Z,26.38
2023-05-16T13:27:30.459Z,24.25
2023-05-16T13:29:57.627Z,24.80
2023-05-16T13:32:24.962Z,24.70
2023-05-16T13:34:51.635Z,24.92
2023-05-16T13:37:18.073Z,24.23
2023-05-16T13:39:44.476Z,26.60
2023-05-16T13:42:11.099Z,25.95
2023-05-16T13:44:37.714Z,29.65
2023-05-16T13:47:04.230Z,21.88
2023-05-16T13:49:31.221Z,18.48
2023-05-16T13:51:57.866Z,17.80
2023-05-16T13:54:24.657Z,17.25
2023-05-16T13:56:51.010Z,13.40
2023-05-16T13:59:32.011Z,12.63
2023-05-16T14:02:04.190Z,12.10
2023-05-16T14:04:31.343Z,12.05
2023-05-16T14:06:57.680Z,11.63
2023-05-16T14:09:24.034Z,11.77
2023-05-16T14:11:50.388Z,13.02
2023-05-16T14:14:16.744Z,11.20
2023-05-16T14:16:45.154Z,11.95
2023-05-16T14:19:12.011Z,11.70
2023-05-16T14:21:39.506Z,12.43
2023-05-16T14:24:07.015Z,13.10
2023-05-16T14:26:33.405Z,12.82
2023-05-16T14:29:00.003Z,13.32
2023-05-16T14:31:26.405Z,13.27
2023-05-16T14:33:52.780Z,14.38
2023-05-16T14:36:19.116Z,14.25
2023-05-16T14:38:46.134Z,13.63
2023-05-16T14:41:12.608Z,14.07
2023-05-16T14:43:38.999Z,14.23
2023-05-16T14:46:05.351Z,14.18
2023-05-16T14:48:32.692Z,14.43
2023-05-16T14:50:59.214Z,14.77
2023-05-16T14:53:25.913Z,15.52
2023-05-16T14:55:52.969Z,15.55
2023-05-16T14:58:19.342Z,15.05
2023-05-16T15:00:45.671Z,15.75
2023-05-16T15:03:13.185Z,16.52
2023-05-16T15:05:41.494Z,16.63
2023-05-16T15:08:07.828Z,16.15
2023-05-16T15:10:34.162Z,18.63
2023-05-16T15:13:01.185Z,17.45
2023-05-16T15:15:28.050Z,17.40
2023-05-16T15:17:54.508Z,17.70
2023-05-16T15:20:22.633Z,17.00
2023-05-16T15:22:49.211Z,17.88
2023-05-16T15:25:15.589Z,16.67
2023-05-16T15:27:42.963Z,18.20
2023-05-16T15:30:11.539Z,17.17
2023-05-16T15:32:38.103Z,16.95
2023-05-16T15:35:05.434Z,17.00
2023-05-16T15:37:31.955Z,17.88
2023-05-16T15:39:58.311Z,19.45
2023-05-16T15:42:24.666Z,18.52
2023-05-16T15:44:51.223Z,18.23
2023-05-16T15:47:18.268Z,19.80
2023-05-16T15:49:44.907Z,19.10
2023-05-16T15:52:11.293Z,21.92
2023-05-16T15:54:37.661Z,20.15
2023-05-16T15:57:04.341Z,21.02
2023-05-16T15:59:30.750Z,20.95
2023-05-16T16:01:57.148Z,21.38
2023-05-16T16:04:24.140Z,19.88
2023-05-16T16:06:50.571Z,21.55
2023-05-16T16:09:17.207Z,21.23
2023-05-16T16:11:43.579Z,21.35
2023-05-16T16:14:10.421Z,21.90
2023-05-16T16:16:38.804Z,22.00
2023-05-16T16:19:05.289Z,18.92
2023-05-16T16:21:32.712Z,20.77
2023-05-16T16:23:59.153Z,21.30
2023-05-16T16:26:25.808Z,21.10
2023-05-16T16:28:52.147Z,21.63
2023-05-16T16:31:18.647Z,22.42
2023-05-16T16:33:48.257Z,22.33
2023-05-16T16:36:15.161Z,23.27
2023-05-16T16:38:42.231Z,24.83
2023-05-16T16:41:09.307Z,22.27
2023-05-16T16:43:36.451Z,22.98
2023-05-16T16:46:02.869Z,24.25
2023-05-16T16:48:29.233Z,25.17
2023-05-16T16:50:56.034Z,25.83
2023-05-16T16:53:22.376Z,26.25
2023-05-16T16:55:49.348Z,27.60
2023-05-16T16:58:15.779Z,29.13
2023-05-16T17:00:42.092Z,31.48
2023-05-16T17:03:08.526Z,29.33
2023-05-16T17:05:35.019Z,28.48
2023-05-16T17:08:01.419Z,31.80
2023-05-16T17:10:28.030Z,30.65
2023-05-16T17:12:55.197Z,29.70
2023-05-16T17:15:21.630Z,30.88
2023-05-16T17:17:48.421Z,30.67
2023-05-16T17:20:14.761Z,32.72
2023-05-16T17:22:41.303Z,33.13
2023-05-16T17:25:09.077Z,32.95
2023-05-16T17:27:35.415Z,34.40
2023-05-16T17:30:03.950Z,34.28
2023-05-16T17:32:30.292Z,33.85
2023-05-16T17:34:56.851Z,35.10
2023-05-16T17:37:23.170Z,32.10
2023-05-16T17:39:49.648Z,34.75
2023-05-16T17:42:16.003Z,34.80
2023-05-16T17:44:42.933Z,35.95
2023-05-16T17:47:10.642Z,34.13
2023-05-16T17:49:37.011Z,33.63
2023-05-16T17:52:03.802Z,36.00
2023-05-16T17:54:31.338Z,37.75
2023-05-16T17:56:57.831Z,35.30
2023-05-16T17:59:26.574Z,33.63
2023-05-16T18:01:53.090Z,33.75
2023-05-16T18:04:21.754Z,32.80
2023-05-16T18:06:48.861Z,33.08
2023-05-16T18:09:15.202Z,32.53
2023-05-16T18:11:41.886Z,32.78
2023-05-16T18:14:08.585Z,33.30
2023-05-16T18:16:35.317Z,31.55
2023-05-16T18:19:04.069Z,31.80
2023-05-16T18:21:31.288Z,32.70
2023-05-16T18:23:59.319Z,31.35
2023-05-16T18:26:27.733Z,32.30
2023-05-16T18:28:54.082Z,29.92
2023-05-16T18:31:20.574Z,31.02
2023-05-16T18:33:47.106Z,30.58
2023-05-16T18:36:13.477Z,30.90
2023-05-16T18:38:40.605Z,32.20
2023-05-16T18:41:07.121Z,32.67
2023-05-16T18:43:34.626Z,34.95
2023-05-16T18:46:00.936Z,34.10
2023-05-16T18:48:27.335Z,33.88
2023-05-16T18:50:53.753Z,34.05
2023-05-16T18:53:20.157Z,34.28
2023-05-16T18:55:47.827Z,31.45
2023-05-16T18:58:14.285Z,31.75
2023-05-16T19:00:40.678Z,32.15
2023-05-16T19:03:08.974Z,32.40
2023-05-16T19:05:35.678Z,32.35
2023-05-16T19:08:02.077Z,31.77
2023-05-16T19:10:28.605Z,31.05
2023-05-16T19:12:56.061Z,26.88
2023-05-16T19:15:22.479Z,25.50
2023-05-16T19:17:48.869Z,23.48
2023-05-16T19:20:15.260Z,25.13
2023-05-16T19:22:41.717Z,23.02
2023-05-16T19:25:08.954Z,20.88
2023-05-16T19:27:35.376Z,20.85
2023-05-16T19:30:02.628Z,20.55
2023-05-16T19:32:29.623Z,20.70
2023-05-16T19:34:56.234Z,21.35
2023-05-16T19:37:22.771Z,19.20
2023-05-16T19:39:49.146Z,19.63
2023-05-16T19:42:15.507Z,19.45
2023-05-16T19:44:42.256Z,19.17
2023-05-16T19:47:09.350Z,19.00
2023-05-16T19:49:35.810Z,20.33
2023-05-16T19:52:03.995Z,18.45
2023-05-16T19:54:33.289Z,20.25
2023-05-16T19:56:59.797Z,17.75
2023-05-16T19:59:26.406Z,19.02
2023-05-16T20:01:52.985Z,18.42
2023-05-16T20:04:20.058Z,18.75
2023-05-16T20:06:46.555Z,17.38
2023-05-16T20:09:12.919Z,18.80
2023-05-16T20:11:39.292Z,18.27
2023-05-16T20:14:05.755Z,16.98
2023-05-16T20:16:32.198Z,17.02
2023-05-16T20:18:58.655Z,16.02
2023-05-16T20:21:25.782Z,15.45
2023-05-16T20:23:52.244Z,15.75
2023-05-16T20:26:18.666Z,14.15
2023-05-16T20:28:45.195Z,14.63
2023-05-16T20:31:11.554Z,14.25
2023-05-16T20:33:38.048Z,13.82
2023-05-16T20:36:04.723Z,13.45
2023-05-16T20:38:31.759Z,14.50
2023-05-16T20:40:58.848Z,14.20
2023-05-16T20:43:26.751Z,14.15
2023-05-16T20:45:53.294Z,14.05
2023-05-16T20:48:22.965Z,13.95
2023-05-16T20:50:49.367Z,14.15
2023-05-16T20:53:15.819Z,13.90
2023-05-16T20:55:42.842Z,13.77
2023-05-16T20:58:09.220Z,14.93
2023-05-16T21:00:35.552Z,13.50
2023-05-16T21:03:01.972Z,13.65
2023-05-16T21:05:28.427Z,12.65
2023-05-16T21:07:54.824Z,12.95
2023-05-16T21:10:21.234Z,13.55
2023-05-16T21:12:49.391Z,13.60
2023-05-16T21:15:15.752Z,11.85
2023-05-16T21:17:42.890Z,11.45
2023-05-16T21:20:09.930Z,11.93
2023-05-16T21:22:36.333Z,11.38
2023-05-16T21:25:02.899Z,10.95
2023-05-16T21:27:29.268Z,11.32
2023-05-16T21:29:56.279Z,10.98
2023-05-16T21:32:22.665Z,10.27
2023-05-16T21:34:48.963Z,9.63
2023-05-16T21:37:16.145Z,9.85
2023-05-16T21:39:42.506Z,9.57
2023-05-16T21:42:08.852Z,9.45
2023-05-16T21:44:35.224Z,8.88
2023-05-16T21:47:02.210Z,8.45
2023-05-16T21:49:28.577Z,8.15
2023-05-16T21:51:54.963Z,8.85
2023-05-16T21:54:21.358Z,8.05
2023-05-16T21:56:47.729Z,7.53
2023-05-16T21:59:14.097Z,7.60
2023-05-16T22:01:40.476Z,7.47
2023-05-16T22:04:07.689Z,7.30
2023-05-16T22:06:34.187Z,7.47
2023-05-16T22:09:01.173Z,7.03
2023-05-16T22:11:27.764Z,6.43
2023-05-16T22:13:54.153Z,6.75
2023-05-16T22:16:20.501Z,6.65
2023-05-16T22:18:47.065Z,6.32
2023-05-16T22:21:15.430Z,6.22
2023-05-16T22:23:41.799Z,6.68
2023-05-16T22:26:08.197Z,6.53
2023-05-16T22:28:34.546Z,6.40
2023-05-16T22:31:00.869Z,6.22
2023-05-16T22:33:27.333Z,6.50
2023-05-16T22:35:54.043Z,6.25
2023-05-16T22:38:21.148Z,6.05
2023-05-16T22:40:47.492Z,6.57
2023-05-16T22:43:13.853Z,5.80
2023-05-16T22:45:40.258Z,5.60
2023-05-16T22:48:06.747Z,5.53
2023-05-16T22:50:33.232Z,5.05
2023-05-16T23:00:28.168Z,5.65
2023-05-16T23:02:54.638Z,5.20
2023-05-16T23:05:21.086Z,5.57
2023-05-16T23:07:47.455Z,6.45
2023-05-16T23:10:13.862Z,5.45
2023-05-16T23:12:40.200Z,6.07
2023-05-16T23:15:09.404Z,5.78
2023-05-16T23:17:36.763Z,5.05
2023-05-16T23:20:03.948Z,4.88
2023-05-16T23:22:30.391Z,4.88
2023-05-16T23:24:56.698Z,5.38
2023-05-16T23:27:23.151Z,5.13
2023-05-16T23:29:49.457Z,4.60
2023-05-16T23:32:16.550Z,5.13
2023-05-16T23:34:42.876Z,5.22
2023-05-16T23:37:09.252Z,5.00
2023-05-16T23:39:35.581Z,5.53
2023-05-16T23:42:01.906Z,5.05
2023-05-16T23:44:28.369Z,5.40
2023-05-16T23:46:54.720Z,6.18
2023-05-16T23:49:21.699Z,4.47
2023-05-16T23:51:57.474Z,4.97
2023-05-16T23:54:24.761Z,5.50
2023-05-16T23:56:51.293Z,5.18
2023-05-16T23:59:18.546Z,4.50
